sensor_id;sensor_type;location;lat;lon;timestamp;temperature;humidity
24902;DHT22;31328;51.402;0.016;2023-12-20T00:01:55;6.50;99.90
24902;DHT22;31328;51.402;0.016;2023-12-20T00:04:21;6.50;99.90
24902;DHT22;31328;51.402;0.016;2023-12-20T00:06:48;6.50;99.90
24902;DHT22;31328;51.402;0.016;2023-12-20T00:09:14;6.50;99.90
24902;DHT22;31328;51.402;0.016;2023-12-20T00:11:40;6.40;99.90
24902;DHT22;31328;51.402;0.016;2023-12-20T00:14:08;6.40;99.90
24902;DHT22;31328;51.402;0.016;2023-12-20T00:16:34;6.40;99.90
24902;DHT22;31328;51.402;0.016;2023-12-20T00:19:01;6.40;99.90
24902;DHT22;31328;51.402;0.016;2023-12-20T00:21:27;6.40;99.90
24902;DHT22;31328;51.402;0.016;2023-12-20T00:23:54;6.40;99.90
24902;DHT22;31328;51.402;0.016;2023-12-20T00:26:20;6.40;99.90
24902;DHT22;31328;51.402;0.016;2023-12-20T00:28:46;6.40;99.90
24902;DHT22;31328;51.402;0.016;2023-12-20T00:31:13;6.40;99.90
24902;DHT22;31328;51.402;0.016;2023-12-20T00:33:39;6.50;99.90
24902;DHT22;31328;51.402;0.016;2023-12-20T00:36:09;6.40;99.90
24902;DHT22;31328;51.402;0.016;2023-12-20T00:38:36;6.50;99.90
24902;DHT22;31328;51.402;0.016;2023-12-20T00:41:02;6.50;99.90
24902;DHT22;31328;51.402;0.016;2023-12-20T00:43:28;6.40;99.90
24902;DHT22;31328;51.402;0.016;2023-12-20T00:45:55;6.40;99.90
24902;DHT22;31328;51.402;0.016;2023-12-20T00:48:21;6.40;99.90
24902;DHT22;31328;51.402;0.016;2023-12-20T00:50:48;6.40;99.90
24902;DHT22;31328;51.402;0.016;2023-12-20T00:53:14;6.40;99.90
24902;DHT22;31328;51.402;0.016;2023-12-20T00:55:40;6.40;99.90
24902;DHT22;31328;51.402;0.016;2023-12-20T00:58:07;6.40;99.90
24902;DHT22;31328;51.402;0.016;2023-12-20T01:00:33;6.40;99.90
24902;DHT22;31328;51.402;0.016;2023-12-20T01:02:59;6.40;99.90
24902;DHT22;31328;51.402;0.016;2023-12-20T01:05:26;6.40;99.90
24902;DHT22;31328;51.402;0.016;2023-12-20T01:07:52;6.40;99.90
24902;DHT22;31328;51.402;0.016;2023-12-20T01:10:18;6.40;99.90
24902;DHT22;31328;51.402;0.016;2023-12-20T01:12:45;6.40;99.90
24902;DHT22;31328;51.402;0.016;2023-12-20T01:15:11;6.40;99.90
24902;DHT22;31328;51.402;0.016;2023-12-20T01:17:37;6.40;99.90
24902;DHT22;31328;51.402;0.016;2023-12-20T01:20:04;6.40;99.90
24902;DHT22;31328;51.402;0.016;2023-12-20T01:22:31;6.30;99.90
24902;DHT22;31328;51.402;0.016;2023-12-20T01:24:57;6.40;99.90
24902;DHT22;31328;51.402;0.016;2023-12-20T01:27:23;6.40;99.90
24902;DHT22;31328;51.402;0.016;2023-12-20T01:29:50;6.40;99.90
24902;DHT22;31328;51.402;0.016;2023-12-20T01:32:16;6.40;99.90
24902;DHT22;31328;51.402;0.016;2023-12-20T01:34:42;6.40;99.90
24902;DHT22;31328;51.402;0.016;2023-12-20T01:37:09;6.40;99.90
24902;DHT22;31328;51.402;0.016;2023-12-20T01:39:35;6.50;99.90
24902;DHT22;31328;51.402;0.016;2023-12-20T01:42:02;6.40;99.90
24902;DHT22;31328;51.402;0.016;2023-12-20T01:44:28;6.40;99.90
24902;DHT22;31328;51.402;0.016;2023-12-20T01:46:55;6.40;99.90
24902;DHT22;31328;51.402;0.016;2023-12-20T01:49:21;6.40;99.90
24902;DHT22;31328;51.402;0.016;2023-12-20T01:51:48;6.40;99.90
24902;DHT22;31328;51.402;0.016;2023-12-20T01:54:14;6.50;99.90
24902;DHT22;31328;51.402;0.016;2023-12-20T01:56:41;6.50;99.90
24902;DHT22;31328;51.402;0.016;2023-12-20T01:59:08;6.50;99.90
24902;DHT22;31328;51.402;0.016;2023-12-20T02:01:35;6.50;99.90
24902;DHT22;31328;51.402;0.016;2023-12-20T02:04:02;6.50;99.90
24902;DHT22;31328;51.402;0.016;2023-12-20T02:06:34;6.50;99.90
24902;DHT22;31328;51.402;0.016;2023-12-20T02:09:00;6.50;99.90
24902;DHT22;31328;51.402;0.016;2023-12-20T02:11:26;6.50;99.90
24902;DHT22;31328;51.402;0.016;2023-12-20T02:13:53;6.50;99.90
24902;DHT22;31328;51.402;0.016;2023-12-20T02:16:21;6.50;99.90
24902;DHT22;31328;51.402;0.016;2023-12-20T02:18:48;6.50;99.90
24902;DHT22;31328;51.402;0.016;2023-12-20T02:21:14;6.60;99.90
24902;DHT22;31328;51.402;0.016;2023-12-20T02:23:41;6.50;99.90
24902;DHT22;31328;51.402;0.016;2023-12-20T02:26:08;6.50;99.90
24902;DHT22;31328;51.402;0.016;2023-12-20T02:28:34;6.50;99.90
24902;DHT22;31328;51.402;0.016;2023-12-20T02:31:01;6.50;99.90
24902;DHT22;31328;51.402;0.016;2023-12-20T02:33:27;6.50;99.90
24902;DHT22;31328;51.402;0.016;2023-12-20T02:35:54;6.60;99.90
24902;DHT22;31328;51.402;0.016;2023-12-20T02:38:20;6.60;99.90
24902;DHT22;31328;51.402;0.016;2023-12-20T02:40:47;6.50;99.90
24902;DHT22;31328;51.402;0.016;2023-12-20T02:43:13;6.50;99.90
24902;DHT22;31328;51.402;0.016;2023-12-20T02:45:39;6.60;99.90
24902;DHT22;31328;51.402;0.016;2023-12-20T02:48:06;6.60;99.90
24902;DHT22;31328;51.402;0.016;2023-12-20T02:50:32;6.50;99.90
24902;DHT22;31328;51.402;0.016;2023-12-20T02:52:58;6.60;99.90
24902;DHT22;31328;51.402;0.016;2023-12-20T02:55:25;6.60;99.90
24902;DHT22;31328;51.402;0.016;2023-12-20T02:57:51;6.60;99.90
24902;DHT22;31328;51.402;0.016;2023-12-20T03:00:17;6.50;99.90
24902;DHT22;31328;51.402;0.016;2023-12-20T03:02:44;6.60;99.90
24902;DHT22;31328;51.402;0.016;2023-12-20T03:05:10;6.50;99.90
24902;DHT22;31328;51.402;0.016;2023-12-20T03:07:37;6.60;99.90
24902;DHT22;31328;51.402;0.016;2023-12-20T03:10:04;6.60;99.90
24902;DHT22;31328;51.402;0.016;2023-12-20T03:12:32;6.50;99.90
24902;DHT22;31328;51.402;0.016;2023-12-20T03:14:58;6.50;99.90
24902;DHT22;31328;51.402;0.016;2023-12-20T03:17:25;6.50;99.90
24902;DHT22;31328;51.402;0.016;2023-12-20T03:19:51;6.50;99.90
24902;DHT22;31328;51.402;0.016;2023-12-20T03:22:18;6.60;99.90
24902;DHT22;31328;51.402;0.016;2023-12-20T03:24:44;6.60;99.90
24902;DHT22;31328;51.402;0.016;2023-12-20T03:27:10;6.60;99.90
24902;DHT22;31328;51.402;0.016;2023-12-20T03:29:37;6.60;99.90
24902;DHT22;31328;51.402;0.016;2023-12-20T03:32:03;6.50;99.90
24902;DHT22;31328;51.402;0.016;2023-12-20T03:34:30;6.50;99.90
24902;DHT22;31328;51.402;0.016;2023-12-20T03:36:56;6.50;99.90
24902;DHT22;31328;51.402;0.016;2023-12-20T03:39:22;6.50;99.90
24902;DHT22;31328;51.402;0.016;2023-12-20T03:41:49;6.50;99.90
24902;DHT22;31328;51.402;0.016;2023-12-20T03:44:15;6.50;99.90
24902;DHT22;31328;51.402;0.016;2023-12-20T03:46:41;6.50;99.90
24902;DHT22;31328;51.402;0.016;2023-12-20T03:49:08;6.50;99.90
24902;DHT22;31328;51.402;0.016;2023-12-20T03:51:34;6.50;99.90
24902;DHT22;31328;51.402;0.016;2023-12-20T03:54:00;6.50;99.90
24902;DHT22;31328;51.402;0.016;2023-12-20T03:56:26;6.50;99.90
24902;DHT22;31328;51.402;0.016;2023-12-20T03:58:53;6.50;99.90
24902;DHT22;31328;51.402;0.016;2023-12-20T04:01:19;6.50;99.90
24902;DHT22;31328;51.402;0.016;2023-12-20T04:03:46;6.50;99.90
24902;DHT22;31328;51.402;0.016;2023-12-20T04:06:17;6.50;99.90
24902;DHT22;31328;51.402;0.016;2023-12-20T04:08:44;6.50;99.90
24902;DHT22;31328;51.402;0.016;2023-12-20T04:11:10;6.50;99.90
24902;DHT22;31328;51.402;0.016;2023-12-20T04:13:36;6.50;99.90
24902;DHT22;31328;51.402;0.016;2023-12-20T04:16:03;6.50;99.90
24902;DHT22;31328;51.402;0.016;2023-12-20T04:18:29;6.50;99.90
24902;DHT22;31328;51.402;0.016;2023-12-20T04:20:58;6.40;99.90
24902;DHT22;31328;51.402;0.016;2023-12-20T04:23:24;6.50;99.90
24902;DHT22;31328;51.402;0.016;2023-12-20T04:25:50;6.50;99.90
24902;DHT22;31328;51.402;0.016;2023-12-20T04:28:17;6.50;99.90
24902;DHT22;31328;51.402;0.016;2023-12-20T04:30:43;6.50;99.90
24902;DHT22;31328;51.402;0.016;2023-12-20T04:33:09;6.50;99.90
24902;DHT22;31328;51.402;0.016;2023-12-20T04:35:36;6.50;99.90
24902;DHT22;31328;51.402;0.016;2023-12-20T04:38:02;6.50;99.90
24902;DHT22;31328;51.402;0.016;2023-12-20T04:40:28;6.50;99.90
24902;DHT22;31328;51.402;0.016;2023-12-20T04:42:55;6.50;99.90
24902;DHT22;31328;51.402;0.016;2023-12-20T04:45:21;6.50;99.90
24902;DHT22;31328;51.402;0.016;2023-12-20T04:47:50;6.50;99.90
24902;DHT22;31328;51.402;0.016;2023-12-20T04:50:16;6.50;99.90
24902;DHT22;31328;51.402;0.016;2023-12-20T04:52:43;6.50;99.90
24902;DHT22;31328;51.402;0.016;2023-12-20T04:55:09;6.50;99.90
24902;DHT22;31328;51.402;0.016;2023-12-20T04:57:35;6.50;99.90
24902;DHT22;31328;51.402;0.016;2023-12-20T05:00:02;6.50;99.90
24902;DHT22;31328;51.402;0.016;2023-12-20T05:02:29;6.50;99.90
24902;DHT22;31328;51.402;0.016;2023-12-20T05:04:55;6.50;99.90
24902;DHT22;31328;51.402;0.016;2023-12-20T05:07:22;6.50;99.90
24902;DHT22;31328;51.402;0.016;2023-12-20T05:09:48;6.50;99.90
24902;DHT22;31328;51.402;0.016;2023-12-20T05:12:14;6.50;99.90
24902;DHT22;31328;51.402;0.016;2023-12-20T05:14:41;6.50;99.90
24902;DHT22;31328;51.402;0.016;2023-12-20T05:17:07;6.60;99.90
24902;DHT22;31328;51.402;0.016;2023-12-20T05:19:33;6.60;99.90
24902;DHT22;31328;51.402;0.016;2023-12-20T05:22:03;6.60;99.90
24902;DHT22;31328;51.402;0.016;2023-12-20T05:24:29;6.50;99.90
24902;DHT22;31328;51.402;0.016;2023-12-20T05:26:55;6.60;99.90
24902;DHT22;31328;51.402;0.016;2023-12-20T05:29:22;6.60;99.90
24902;DHT22;31328;51.402;0.016;2023-12-20T05:31:48;6.60;99.90
24902;DHT22;31328;51.402;0.016;2023-12-20T05:34:15;6.50;99.90
24902;DHT22;31328;51.402;0.016;2023-12-20T05:36:41;6.60;99.90
24902;DHT22;31328;51.402;0.016;2023-12-20T05:39:07;6.60;99.90
24902;DHT22;31328;51.402;0.016;2023-12-20T05:41:34;6.60;99.90
24902;DHT22;31328;51.402;0.016;2023-12-20T05:44:00;6.50;99.90
24902;DHT22;31328;51.402;0.016;2023-12-20T05:46:26;6.50;99.90
24902;DHT22;31328;51.402;0.016;2023-12-20T05:48:53;6.50;99.90
24902;DHT22;31328;51.402;0.016;2023-12-20T05:51:19;6.50;99.90
24902;DHT22;31328;51.402;0.016;2023-12-20T05:53:46;6.50;99.90
24902;DHT22;31328;51.402;0.016;2023-12-20T05:56:12;6.50;99.90
24902;DHT22;31328;51.402;0.016;2023-12-20T05:58:39;6.40;99.90
24902;DHT22;31328;51.402;0.016;2023-12-20T06:01:06;6.40;99.90
24902;DHT22;31328;51.402;0.016;2023-12-20T06:03:34;6.50;99.90
24902;DHT22;31328;51.402;0.016;2023-12-20T06:06:08;6.40;99.90
24902;DHT22;31328;51.402;0.016;2023-12-20T06:08:34;6.50;99.90
24902;DHT22;31328;51.402;0.016;2023-12-20T06:11:00;6.50;99.90
24902;DHT22;31328;51.402;0.016;2023-12-20T06:13:27;6.50;99.90
24902;DHT22;31328;51.402;0.016;2023-12-20T06:15:56;6.50;99.90
24902;DHT22;31328;51.402;0.016;2023-12-20T06:18:23;6.50;99.90
24902;DHT22;31328;51.402;0.016;2023-12-20T06:20:50;6.50;99.90
24902;DHT22;31328;51.402;0.016;2023-12-20T06:23:17;6.50;99.90
24902;DHT22;31328;51.402;0.016;2023-12-20T06:25:44;6.50;99.90
24902;DHT22;31328;51.402;0.016;2023-12-20T06:28:10;6.60;99.90
24902;DHT22;31328;51.402;0.016;2023-12-20T06:30:40;6.50;99.90
24902;DHT22;31328;51.402;0.016;2023-12-20T06:33:06;6.60;99.90
24902;DHT22;31328;51.402;0.016;2023-12-20T06:35:33;6.60;99.90
24902;DHT22;31328;51.402;0.016;2023-12-20T06:37:59;6.60;99.90
24902;DHT22;31328;51.402;0.016;2023-12-20T06:40:27;6.50;99.90
24902;DHT22;31328;51.402;0.016;2023-12-20T06:42:53;6.60;99.90
24902;DHT22;31328;51.402;0.016;2023-12-20T06:45:20;6.60;99.90
24902;DHT22;31328;51.402;0.016;2023-12-20T06:47:46;6.60;99.90
24902;DHT22;31328;51.402;0.016;2023-12-20T06:50:13;6.60;99.90
24902;DHT22;31328;51.402;0.016;2023-12-20T06:52:40;6.60;99.90
24902;DHT22;31328;51.402;0.016;2023-12-20T06:55:07;6.60;99.90
24902;DHT22;31328;51.402;0.016;2023-12-20T06:57:33;6.60;99.90
24902;DHT22;31328;51.402;0.016;2023-12-20T07:00:01;6.60;99.90
24902;DHT22;31328;51.402;0.016;2023-12-20T07:02:28;6.60;99.90
24902;DHT22;31328;51.402;0.016;2023-12-20T07:04:56;6.70;99.90
24902;DHT22;31328;51.402;0.016;2023-12-20T07:07:23;6.60;99.90
24902;DHT22;31328;51.402;0.016;2023-12-20T07:09:50;6.70;99.90
24902;DHT22;31328;51.402;0.016;2023-12-20T07:12:17;6.70;99.90
24902;DHT22;31328;51.402;0.016;2023-12-20T07:14:46;6.60;99.90
24902;DHT22;31328;51.402;0.016;2023-12-20T07:17:13;6.70;99.90
24902;DHT22;31328;51.402;0.016;2023-12-20T07:19:41;6.70;99.90
24902;DHT22;31328;51.402;0.016;2023-12-20T07:22:08;6.70;99.90
24902;DHT22;31328;51.402;0.016;2023-12-20T07:24:34;6.70;99.90
24902;DHT22;31328;51.402;0.016;2023-12-20T07:27:01;6.70;99.90
24902;DHT22;31328;51.402;0.016;2023-12-20T07:29:29;6.70;99.90
24902;DHT22;31328;51.402;0.016;2023-12-20T07:31:55;6.80;99.90
24902;DHT22;31328;51.402;0.016;2023-12-20T07:34:21;6.70;99.90
24902;DHT22;31328;51.402;0.016;2023-12-20T07:36:48;6.80;99.90
24902;DHT22;31328;51.402;0.016;2023-12-20T07:39:14;6.80;99.90
24902;DHT22;31328;51.402;0.016;2023-12-20T07:41:40;6.80;99.90
24902;DHT22;31328;51.402;0.016;2023-12-20T07:44:07;6.80;99.90
24902;DHT22;31328;51.402;0.016;2023-12-20T07:46:33;6.80;99.90
24902;DHT22;31328;51.402;0.016;2023-12-20T07:49:00;6.80;99.90
24902;DHT22;31328;51.402;0.016;2023-12-20T07:51:26;6.80;99.90
24902;DHT22;31328;51.402;0.016;2023-12-20T07:53:52;6.90;99.90
24902;DHT22;31328;51.402;0.016;2023-12-20T07:56:19;6.90;99.90
24902;DHT22;31328;51.402;0.016;2023-12-20T07:58:46;6.90;99.90
24902;DHT22;31328;51.402;0.016;2023-12-20T08:01:16;6.90;99.90
24902;DHT22;31328;51.402;0.016;2023-12-20T08:03:42;6.90;99.90
24902;DHT22;31328;51.402;0.016;2023-12-20T08:06:08;6.90;99.90
24902;DHT22;31328;51.402;0.016;2023-12-20T08:08:35;7.00;99.90
24902;DHT22;31328;51.402;0.016;2023-12-20T08:11:01;7.00;99.90
24902;DHT22;31328;51.402;0.016;2023-12-20T08:13:28;7.00;99.90
24902;DHT22;31328;51.402;0.016;2023-12-20T08:15:55;7.00;99.90
24902;DHT22;31328;51.402;0.016;2023-12-20T08:18:22;7.00;99.90
24902;DHT22;31328;51.402;0.016;2023-12-20T08:20:49;7.00;99.90
24902;DHT22;31328;51.402;0.016;2023-12-20T08:23:15;6.90;99.90
24902;DHT22;31328;51.402;0.016;2023-12-20T08:25:42;7.00;99.90
24902;DHT22;31328;51.402;0.016;2023-12-20T08:28:08;7.10;99.90
24902;DHT22;31328;51.402;0.016;2023-12-20T08:30:34;7.10;99.90
24902;DHT22;31328;51.402;0.016;2023-12-20T08:33:01;7.10;99.90
24902;DHT22;31328;51.402;0.016;2023-12-20T08:35:28;7.10;99.90
24902;DHT22;31328;51.402;0.016;2023-12-20T08:37:55;7.20;99.90
24902;DHT22;31328;51.402;0.016;2023-12-20T08:40:22;7.20;99.90
24902;DHT22;31328;51.402;0.016;2023-12-20T08:42:49;7.20;99.90
24902;DHT22;31328;51.402;0.016;2023-12-20T08:45:15;7.20;99.90
24902;DHT22;31328;51.402;0.016;2023-12-20T08:47:42;7.20;99.90
24902;DHT22;31328;51.402;0.016;2023-12-20T08:50:10;7.30;99.90
24902;DHT22;31328;51.402;0.016;2023-12-20T08:52:37;7.30;99.90
24902;DHT22;31328;51.402;0.016;2023-12-20T08:55:03;7.30;99.90
24902;DHT22;31328;51.402;0.016;2023-12-20T08:57:30;7.30;99.90
24902;DHT22;31328;51.402;0.016;2023-12-20T08:59:58;7.30;99.90
24902;DHT22;31328;51.402;0.016;2023-12-20T09:02:24;7.40;99.90
24902;DHT22;31328;51.402;0.016;2023-12-20T09:04:50;7.40;99.90
24902;DHT22;31328;51.402;0.016;2023-12-20T09:07:26;7.40;99.90
24902;DHT22;31328;51.402;0.016;2023-12-20T09:09:53;7.40;99.90
24902;DHT22;31328;51.402;0.016;2023-12-20T09:12:20;7.40;99.90
24902;DHT22;31328;51.402;0.016;2023-12-20T09:14:47;7.50;99.90
24902;DHT22;31328;51.402;0.016;2023-12-20T09:17:13;7.50;99.90
24902;DHT22;31328;51.402;0.016;2023-12-20T09:19:40;7.60;99.90
24902;DHT22;31328;51.402;0.016;2023-12-20T09:22:06;7.60;99.90
24902;DHT22;31328;51.402;0.016;2023-12-20T09:24:33;7.70;99.90
24902;DHT22;31328;51.402;0.016;2023-12-20T09:27:00;7.70;99.90
24902;DHT22;31328;51.402;0.016;2023-12-20T09:29:26;7.70;99.90
24902;DHT22;31328;51.402;0.016;2023-12-20T09:31:52;7.80;99.90
24902;DHT22;31328;51.402;0.016;2023-12-20T09:34:19;7.80;99.90
24902;DHT22;31328;51.402;0.016;2023-12-20T09:36:45;7.80;99.90
24902;DHT22;31328;51.402;0.016;2023-12-20T09:39:17;7.90;99.90
24902;DHT22;31328;51.402;0.016;2023-12-20T09:42:00;8.00;99.90
24902;DHT22;31328;51.402;0.016;2023-12-20T09:44:27;8.10;99.90
24902;DHT22;31328;51.402;0.016;2023-12-20T09:46:55;8.20;99.90
24902;DHT22;31328;51.402;0.016;2023-12-20T09:49:22;8.20;99.90
24902;DHT22;31328;51.402;0.016;2023-12-20T09:51:53;8.30;99.90
24902;DHT22;31328;51.402;0.016;2023-12-20T09:54:21;8.30;99.90
24902;DHT22;31328;51.402;0.016;2023-12-20T09:56:47;8.40;99.90
24902;DHT22;31328;51.402;0.016;2023-12-20T09:59:14;8.50;99.90
24902;DHT22;31328;51.402;0.016;2023-12-20T10:01:41;8.60;99.90
24902;DHT22;31328;51.402;0.016;2023-12-20T10:04:10;8.70;99.90
24902;DHT22;31328;51.402;0.016;2023-12-20T10:06:42;8.70;99.90
24902;DHT22;31328;51.402;0.016;2023-12-20T10:09:10;8.80;99.90
24902;DHT22;31328;51.402;0.016;2023-12-20T10:11:37;8.80;99.90
24902;DHT22;31328;51.402;0.016;2023-12-20T10:14:05;8.90;99.90
24902;DHT22;31328;51.402;0.016;2023-12-20T10:16:33;8.90;99.90
24902;DHT22;31328;51.402;0.016;2023-12-20T10:19:00;9.00;99.90
24902;DHT22;31328;51.402;0.016;2023-12-20T10:21:27;9.00;99.90
24902;DHT22;31328;51.402;0.016;2023-12-20T10:23:57;9.10;99.90
24902;DHT22;31328;51.402;0.016;2023-12-20T10:26:25;9.10;99.90
24902;DHT22;31328;51.402;0.016;2023-12-20T10:28:59;9.10;99.90
24902;DHT22;31328;51.402;0.016;2023-12-20T10:31:26;9.20;99.90
24902;DHT22;31328;51.402;0.016;2023-12-20T10:33:55;9.20;99.90
24902;DHT22;31328;51.402;0.016;2023-12-20T10:36:23;9.30;99.90
24902;DHT22;31328;51.402;0.016;2023-12-20T10:38:50;9.30;99.90
24902;DHT22;31328;51.402;0.016;2023-12-20T10:41:29;9.30;99.90
24902;DHT22;31328;51.402;0.016;2023-12-20T10:43:59;9.40;99.90
24902;DHT22;31328;51.402;0.016;2023-12-20T10:46:29;9.40;99.90
24902;DHT22;31328;51.402;0.016;2023-12-20T10:48:57;9.40;99.90
24902;DHT22;31328;51.402;0.016;2023-12-20T10:51:24;9.50;99.90
24902;DHT22;31328;51.402;0.016;2023-12-20T10:53:53;9.50;99.90
24902;DHT22;31328;51.402;0.016;2023-12-20T10:56:20;9.60;99.90
24902;DHT22;31328;51.402;0.016;2023-12-20T10:58:48;9.60;99.90
24902;DHT22;31328;51.402;0.016;2023-12-20T11:01:17;9.70;99.90
24902;DHT22;31328;51.402;0.016;2023-12-20T11:03:53;9.70;99.90
24902;DHT22;31328;51.402;0.016;2023-12-20T11:06:53;9.70;99.90
24902;DHT22;31328;51.402;0.016;2023-12-20T11:09:25;9.80;99.90
24902;DHT22;31328;51.402;0.016;2023-12-20T11:12:15;9.80;99.90
24902;DHT22;31328;51.402;0.016;2023-12-20T11:14:50;9.80;99.90
24902;DHT22;31328;51.402;0.016;2023-12-20T11:17:18;9.80;99.90
24902;DHT22;31328;51.402;0.016;2023-12-20T11:22:28;9.80;99.90
24902;DHT22;31328;51.402;0.016;2023-12-20T11:25:07;9.90;99.90
24902;DHT22;31328;51.402;0.016;2023-12-20T11:27:41;9.80;99.90
24902;DHT22;31328;51.402;0.016;2023-12-20T11:30:09;9.90;99.90
24902;DHT22;31328;51.402;0.016;2023-12-20T11:32:39;9.90;99.90
24902;DHT22;31328;51.402;0.016;2023-12-20T11:37:36;9.90;99.90
24902;DHT22;31328;51.402;0.016;2023-12-20T11:40:06;10.00;99.90
24902;DHT22;31328;51.402;0.016;2023-12-20T11:42:37;10.00;99.90
24902;DHT22;31328;51.402;0.016;2023-12-20T11:45:04;10.00;99.90
24902;DHT22;31328;51.402;0.016;2023-12-20T11:47:31;10.00;99.90
24902;DHT22;31328;51.402;0.016;2023-12-20T11:49:57;10.10;99.90
24902;DHT22;31328;51.402;0.016;2023-12-20T11:52:26;10.10;99.90
24902;DHT22;31328;51.402;0.016;2023-12-20T11:54:53;10.10;99.90
24902;DHT22;31328;51.402;0.016;2023-12-20T11:57:19;10.20;99.90
24902;DHT22;31328;51.402;0.016;2023-12-20T11:59:45;10.20;99.90
24902;DHT22;31328;51.402;0.016;2023-12-20T12:02:12;10.20;99.90
24902;DHT22;31328;51.402;0.016;2023-12-20T12:04:41;10.30;99.90
24902;DHT22;31328;51.402;0.016;2023-12-20T12:07:08;10.30;99.90
24902;DHT22;31328;51.402;0.016;2023-12-20T12:09:35;10.30;99.90
24902;DHT22;31328;51.402;0.016;2023-12-20T12:12:01;10.30;99.90
24902;DHT22;31328;51.402;0.016;2023-12-20T12:14:28;10.40;99.90
24902;DHT22;31328;51.402;0.016;2023-12-20T12:16:54;10.40;99.90
24902;DHT22;31328;51.402;0.016;2023-12-20T12:19:25;10.50;99.90
24902;DHT22;31328;51.402;0.016;2023-12-20T12:22:07;10.50;99.90
24902;DHT22;31328;51.402;0.016;2023-12-20T12:24:40;10.50;99.90
24902;DHT22;31328;51.402;0.016;2023-12-20T12:27:07;10.60;99.90
24902;DHT22;31328;51.402;0.016;2023-12-20T12:29:34;10.60;99.90
24902;DHT22;31328;51.402;0.016;2023-12-20T12:32:05;10.50;99.90
24902;DHT22;31328;51.402;0.016;2023-12-20T12:34:33;10.50;99.90
24902;DHT22;31328;51.402;0.016;2023-12-20T12:37:04;10.50;99.90
24902;DHT22;31328;51.402;0.016;2023-12-20T12:39:30;10.50;99.90
24902;DHT22;31328;51.402;0.016;2023-12-20T12:41:57;10.50;99.90
24902;DHT22;31328;51.402;0.016;2023-12-20T12:44:23;10.50;99.90
24902;DHT22;31328;51.402;0.016;2023-12-20T12:46:51;10.50;99.90
24902;DHT22;31328;51.402;0.016;2023-12-20T12:49:22;10.60;99.90
24902;DHT22;31328;51.402;0.016;2023-12-20T12:51:49;10.60;99.90
24902;DHT22;31328;51.402;0.016;2023-12-20T12:54:15;10.60;99.90
24902;DHT22;31328;51.402;0.016;2023-12-20T12:56:43;10.60;99.90
24902;DHT22;31328;51.402;0.016;2023-12-20T12:59:10;10.70;99.90
24902;DHT22;31328;51.402;0.016;2023-12-20T13:01:37;10.70;99.90
24902;DHT22;31328;51.402;0.016;2023-12-20T13:04:04;10.80;99.90
24902;DHT22;31328;51.402;0.016;2023-12-20T13:06:39;10.80;99.90
24902;DHT22;31328;51.402;0.016;2023-12-20T13:09:08;10.80;99.90
24902;DHT22;31328;51.402;0.016;2023-12-20T13:11:36;10.90;99.90
24902;DHT22;31328;51.402;0.016;2023-12-20T13:14:02;10.90;99.90
24902;DHT22;31328;51.402;0.016;2023-12-20T13:16:29;11.00;99.90
24902;DHT22;31328;51.402;0.016;2023-12-20T13:18:56;11.00;99.90
24902;DHT22;31328;51.402;0.016;2023-12-20T13:21:22;11.00;99.90
24902;DHT22;31328;51.402;0.016;2023-12-20T13:23:49;11.00;99.90
24902;DHT22;31328;51.402;0.016;2023-12-20T13:26:15;11.10;99.90
24902;DHT22;31328;51.402;0.016;2023-12-20T13:28:42;11.10;99.90
24902;DHT22;31328;51.402;0.016;2023-12-20T13:31:08;11.10;99.90
24902;DHT22;31328;51.402;0.016;2023-12-20T13:33:34;11.10;99.90
24902;DHT22;31328;51.402;0.016;2023-12-20T13:36:01;11.10;99.90
24902;DHT22;31328;51.402;0.016;2023-12-20T13:38:27;11.10;99.90
24902;DHT22;31328;51.402;0.016;2023-12-20T13:40:53;11.10;99.90
24902;DHT22;31328;51.402;0.016;2023-12-20T13:43:20;11.10;99.90
24902;DHT22;31328;51.402;0.016;2023-12-20T13:45:48;11.10;99.90
24902;DHT22;31328;51.402;0.016;2023-12-20T13:48:14;11.10;99.90
24902;DHT22;31328;51.402;0.016;2023-12-20T13:50:40;11.20;99.90
24902;DHT22;31328;51.402;0.016;2023-12-20T13:53:07;11.20;99.90
24902;DHT22;31328;51.402;0.016;2023-12-20T13:55:33;11.20;99.90
24902;DHT22;31328;51.402;0.016;2023-12-20T13:58:00;11.10;99.90
24902;DHT22;31328;51.402;0.016;2023-12-20T14:00:26;11.10;99.90
24902;DHT22;31328;51.402;0.016;2023-12-20T14:02:52;11.10;99.90
24902;DHT22;31328;51.402;0.016;2023-12-20T14:05:19;11.20;99.90
24902;DHT22;31328;51.402;0.016;2023-12-20T14:07:45;11.20;99.90
24902;DHT22;31328;51.402;0.016;2023-12-20T14:10:13;11.20;99.90
24902;DHT22;31328;51.402;0.016;2023-12-20T14:12:39;11.20;99.90
24902;DHT22;31328;51.402;0.016;2023-12-20T14:15:07;11.20;99.90
24902;DHT22;31328;51.402;0.016;2023-12-20T14:17:38;11.20;99.90
24902;DHT22;31328;51.402;0.016;2023-12-20T14:20:08;11.10;99.90
24902;DHT22;31328;51.402;0.016;2023-12-20T14:22:35;11.20;99.90
24902;DHT22;31328;51.402;0.016;2023-12-20T14:25:01;11.10;99.90
24902;DHT22;31328;51.402;0.016;2023-12-20T14:27:28;11.10;99.90
24902;DHT22;31328;51.402;0.016;2023-12-20T14:29:55;11.10;99.90
24902;DHT22;31328;51.402;0.016;2023-12-20T14:32:21;11.10;99.90
24902;DHT22;31328;51.402;0.016;2023-12-20T14:34:48;11.10;99.90
24902;DHT22;31328;51.402;0.016;2023-12-20T14:37:14;11.10;99.90
24902;DHT22;31328;51.402;0.016;2023-12-20T14:39:42;11.10;99.90
24902;DHT22;31328;51.402;0.016;2023-12-20T14:42:09;11.10;99.90
24902;DHT22;31328;51.402;0.016;2023-12-20T14:44:40;11.10;99.90
24902;DHT22;31328;51.402;0.016;2023-12-20T14:47:07;11.10;99.90
24902;DHT22;31328;51.402;0.016;2023-12-20T14:49:33;11.10;99.90
24902;DHT22;31328;51.402;0.016;2023-12-20T14:52:00;11.10;99.90
24902;DHT22;31328;51.402;0.016;2023-12-20T14:54:26;11.10;99.90
24902;DHT22;31328;51.402;0.016;2023-12-20T14:56:52;11.10;99.90
24902;DHT22;31328;51.402;0.016;2023-12-20T14:59:19;11.10;99.90
24902;DHT22;31328;51.402;0.016;2023-12-20T15:01:45;11.10;99.90
24902;DHT22;31328;51.402;0.016;2023-12-20T15:04:12;11.10;99.90
24902;DHT22;31328;51.402;0.016;2023-12-20T15:06:39;11.10;99.90
24902;DHT22;31328;51.402;0.016;2023-12-20T15:09:05;11.10;99.90
24902;DHT22;31328;51.402;0.016;2023-12-20T15:11:32;11.10;99.90
24902;DHT22;31328;51.402;0.016;2023-12-20T15:13:58;11.10;99.90
24902;DHT22;31328;51.402;0.016;2023-12-20T15:16:26;11.10;99.90
24902;DHT22;31328;51.402;0.016;2023-12-20T15:18:52;11.10;99.90
24902;DHT22;31328;51.402;0.016;2023-12-20T15:21:22;11.10;99.90
24902;DHT22;31328;51.402;0.016;2023-12-20T15:23:57;11.10;99.90
24902;DHT22;31328;51.402;0.016;2023-12-20T15:26:38;11.10;99.90
24902;DHT22;31328;51.402;0.016;2023-12-20T15:29:04;11.10;99.90
24902;DHT22;31328;51.402;0.016;2023-12-20T15:31:32;11.10;99.90
24902;DHT22;31328;51.402;0.016;2023-12-20T15:33:59;11.10;99.90
24902;DHT22;31328;51.402;0.016;2023-12-20T15:36:25;11.10;99.90
24902;DHT22;31328;51.402;0.016;2023-12-20T15:38:52;11.10;99.90
24902;DHT22;31328;51.402;0.016;2023-12-20T15:41:19;11.00;99.90
24902;DHT22;31328;51.402;0.016;2023-12-20T15:43:45;11.10;99.90
24902;DHT22;31328;51.402;0.016;2023-12-20T15:46:12;11.00;99.90
24902;DHT22;31328;51.402;0.016;2023-12-20T15:48:38;11.00;99.90